Time;durP1;ratioP1;P1;durP2;ratioP2;P2;SDS_P1;SDS_P2;PMS_P1;PMS_P2;Temp;Humidity;BMP_temperature;BMP_pressure;BME280_temperature;BME280_humidity;BME280_pressure;Samples;Min_cycle;Max_cycle;Signal;HPM_P1;HPM_P2
2023/12/15 00:00:22;;;;;;;9.20;3.10;;;;;;;10.15;34.88;100183.33;109363;1253;60224;-65
2023/12/15 00:02:49;;;;;;;9.80;4.50;;;;;;;10.21;34.85;100192.27;109323;1253;62462;-60
2023/12/15 00:05:16;;;;;;;6.60;3.00;;;;;;;10.20;34.78;100196.24;109378;1252;58126;-59
2023/12/15 00:07:42;;;;;;;7.30;3.90;;;;;;;10.23;34.73;100204.21;109342;1253;58632;-61
2023/12/15 00:10:09;;;;;;;13.70;3.30;;;;;;;10.29;34.82;100212.20;109404;1253;65017;-59
2023/12/15 00:12:36;;;;;;;6.50;2.70;;;;;;;10.32;34.50;100212.83;107265;1253;60537;-58
2023/12/15 00:15:04;;;;;;;10.40;3.00;;;;;;;10.24;34.45;100219.25;105761;1255;64002;-62
2023/12/15 00:17:31;;;;;;;11.70;3.30;;;;;;;10.22;34.66;100224.33;105556;1254;60455;-61
2023/12/15 00:19:58;;;;;;;8.40;2.90;;;;;;;10.07;34.79;100219.56;105931;1254;60902;-61
2023/12/15 00:22:25;;;;;;;11.30;3.30;;;;;;;9.88;35.07;100219.13;105584;1253;65161;-60
2023/12/15 00:24:52;;;;;;;5.80;2.60;;;;;;;9.97;34.94;100230.86;105519;1254;61621;-60
2023/12/15 00:27:19;;;;;;;7.70;3.10;;;;;;;9.99;35.02;100235.75;106195;1253;63800;-61
2023/12/15 00:29:46;;;;;;;12.50;4.40;;;;;;;9.99;35.04;100244.88;105536;1256;60450;-59
2023/12/15 00:32:13;;;;;;;9.70;3.80;;;;;;;9.82;35.11;100246.37;105518;1255;60559;-60
2023/12/15 00:34:40;;;;;;;7.50;2.40;;;;;;;9.80;35.17;100248.52;105556;1256;65819;-61
2023/12/15 00:37:07;;;;;;;5.90;2.60;;;;;;;9.94;35.11;100252.27;105607;1256;61527;-59
2023/12/15 00:39:37;;;;;;;11.40;3.10;;;;;;;9.89;35.15;100250.78;105774;1254;64051;-60
2023/12/15 00:42:09;;;;;;;12.30;3.80;;;;;;;9.83;35.20;100252.61;105719;1254;60341;-61
2023/12/15 00:44:36;;;;;;;6.90;3.20;;;;;;;9.74;35.28;100249.17;105634;1254;60329;-61
2023/12/15 00:47:03;;;;;;;13.10;4.00;;;;;;;9.79;35.32;100249.77;105516;1253;63683;-60
2023/12/15 00:49:30;;;;;;;8.50;2.80;;;;;;;9.88;35.34;100248.56;105911;1254;61693;-65
2023/12/15 00:51:57;;;;;;;12.30;3.40;;;;;;;9.88;35.33;100242.77;105530;1254;63803;-64
2023/12/15 00:54:24;;;;;;;8.10;3.30;;;;;;;9.92;35.31;100247.37;105593;1252;61652;-63
2023/12/15 00:56:51;;;;;;;8.40;2.40;;;;;;;9.85;35.33;100245.27;105446;1257;60530;-64
2023/12/15 00:59:17;;;;;;;9.60;2.70;;;;;;;9.91;35.15;100249.52;106087;1256;65216;-64
2023/12/15 01:01:44;;;;;;;10.40;3.50;;;;;;;9.86;35.08;100256.77;106193;1253;61641;-62
2023/12/15 01:04:11;;;;;;;10.40;4.00;;;;;;;9.78;35.04;100262.48;105636;1254;64017;-64
2023/12/15 01:06:38;;;;;;;7.20;2.90;;;;;;;9.72;35.01;100272.39;105678;1256;60552;-62
2023/12/15 01:09:05;;;;;;;7.70;2.90;;;;;;;9.81;34.93;100279.96;105675;1254;60466;-63
2023/12/15 01:11:32;;;;;;;7.60;3.00;;;;;;;9.83;34.96;100281.37;105689;1256;65214;-62
2023/12/15 01:13:59;;;;;;;10.20;2.80;;;;;;;9.89;34.77;100286.02;105831;1254;61458;-61
2023/12/15 01:16:26;;;;;;;6.80;2.50;;;;;;;9.82;34.59;100290.38;105933;1253;64972;-60
2023/12/15 01:18:53;;;;;;;12.10;2.80;;;;;;;9.85;34.50;100294.70;106033;1253;61111;-62
2023/12/15 01:21:20;;;;;;;8.30;2.50;;;;;;;9.80;34.50;100298.73;106107;1253;60472;-62
2023/12/15 01:23:48;;;;;;;8.20;2.90;;;;;;;9.81;34.52;100306.36;105584;1257;65728;-62
2023/12/15 01:26:15;;;;;;;7.10;2.50;;;;;;;9.89;34.38;100309.29;105588;1254;61528;-62
2023/12/15 01:28:42;;;;;;;6.10;2.50;;;;;;;9.84;34.26;100310.04;105686;1256;64012;-62
2023/12/15 01:31:09;;;;;;;14.60;3.50;;;;;;;9.92;34.16;100313.43;105659;1254;59402;-60
2023/12/15 01:33:35;;;;;;;8.70;2.40;;;;;;;9.85;33.98;100318.34;105669;1254;60486;-62
2023/12/15 01:36:02;;;;;;;7.60;3.20;;;;;;;9.81;33.85;100326.36;105842;1253;65707;-61
2023/12/15 01:38:30;;;;;;;9.90;3.80;;;;;;;9.72;34.01;100334.94;105880;1256;62030;-61
2023/12/15 01:40:57;;;;;;;11.80;3.40;;;;;;;9.69;33.90;100347.61;105894;1254;64523;-62
2023/12/15 01:43:24;;;;;;;6.50;2.80;;;;;;;9.77;33.87;100358.74;105926;1253;60584;-63
2023/12/15 01:45:51;;;;;;;5.30;2.30;;;;;;;9.82;33.90;100372.20;106137;1256;60991;-62
2023/12/15 01:48:31;;;;;;;13.20;3.10;;;;;;;9.88;33.96;100381.53;105806;1253;65487;-62
2023/12/15 01:50:58;;;;;;;11.90;3.10;;;;;;;9.95;34.07;100385.20;105539;1254;61640;-63
2023/12/15 01:53:25;;;;;;;7.30;2.00;;;;;;;10.02;33.97;100385.69;105479;1254;64359;-63
2023/12/15 01:55:52;;;;;;;10.00;2.50;;;;;;;10.08;33.80;100384.21;105835;1254;60657;-63
2023/12/15 01:58:19;;;;;;;6.60;2.00;;;;;;;10.16;33.56;100385.52;105506;1253;60658;-63
2023/12/15 02:00:47;;;;;;;10.10;3.20;;;;;;;10.28;33.44;100388.32;105555;1256;65201;-66
2023/12/15 02:03:17;;;;;;;7.40;2.80;;;;;;;10.38;33.36;100390.51;105541;1256;60780;-63
2023/12/15 02:05:45;;;;;;;11.10;3.00;;;;;;;10.39;33.42;100391.78;105617;1254;64106;-63
2023/12/15 02:08:12;;;;;;;8.60;2.20;;;;;;;10.42;33.33;100394.77;105631;1254;60383;-63
2023/12/15 02:10:39;;;;;;;6.80;2.70;;;;;;;10.41;33.43;100399.02;105707;1254;60479;-63
2023/12/15 02:13:07;;;;;;;7.40;1.90;;;;;;;10.41;33.41;100406.94;105741;1254;64943;-63
2023/12/15 02:15:34;;;;;;;7.70;2.30;;;;;;;10.38;33.40;100418.92;105727;1254;61920;-64
2023/12/15 02:18:02;;;;;;;5.60;2.60;;;;;;;10.33;33.46;100428.06;105848;1254;64594;-63
2023/12/15 02:20:30;;;;;;;6.90;2.40;;;;;;;10.35;33.60;100438.23;106631;1257;60562;-63
2023/12/15 02:23:00;;;;;;;7.90;2.90;;;;;;;10.39;33.60;100443.71;105856;1252;60552;-63
2023/12/15 02:25:27;;;;;;;6.40;2.30;;;;;;;10.42;33.51;100451.38;105870;1256;65198;-63
2023/12/15 02:27:54;;;;;;;15.80;3.80;;;;;;;10.43;33.49;100460.42;105550;1254;61807;-66
2023/12/15 02:30:20;;;;;;;6.30;2.10;;;;;;;10.43;33.63;100467.23;106169;1254;63883;-64
2023/12/15 02:32:47;;;;;;;7.50;3.10;;;;;;;10.42;33.54;100471.02;106155;1256;60517;-63
2023/12/15 02:35:16;;;;;;;6.20;2.20;;;;;;;10.40;33.60;100477.34;105618;1254;60692;-63
2023/12/15 02:37:43;;;;;;;9.20;3.00;;;;;;;10.35;33.73;100483.63;105644;1254;65633;-63
2023/12/15 02:40:10;;;;;;;6.90;1.70;;;;;;;10.35;33.47;100489.09;105469;1257;61904;-64
2023/12/15 02:42:37;;;;;;;6.10;1.90;;;;;;;10.39;33.29;100495.94;105622;1254;64197;-63
2023/12/15 02:45:05;;;;;;;4.40;2.20;;;;;;;10.41;33.27;100496.69;105539;1254;60457;-65
2023/12/15 02:47:33;;;;;;;7.40;2.80;;;;;;;10.43;33.35;100500.80;105692;1255;60442;-64
2023/12/15 02:50:00;;;;;;;5.50;2.40;;;;;;;10.44;33.47;100498.60;105853;1256;65112;-63
2023/12/15 02:52:27;;;;;;;8.70;3.10;;;;;;;10.41;33.41;100505.43;105895;1255;61680;-64
2023/12/15 02:54:54;;;;;;;7.80;2.60;;;;;;;10.32;33.23;100516.84;105455;1253;64098;-63
2023/12/15 02:57:21;;;;;;;8.80;2.70;;;;;;;10.29;33.41;100522.19;106080;1254;60508;-64
2023/12/15 02:59:48;;;;;;;9.10;2.30;;;;;;;10.25;33.43;100523.87;106135;1254;60425;-66
2023/12/15 03:02:15;;;;;;;9.60;2.90;;;;;;;10.28;33.47;100527.30;106136;1254;64991;-62
2023/12/15 03:04:42;;;;;;;8.30;3.20;;;;;;;10.28;33.56;100530.97;105545;1254;61811;-62
2023/12/15 03:07:09;;;;;;;9.50;3.10;;;;;;;10.26;33.61;100530.23;105547;1254;64306;-64
2023/12/15 03:09:36;;;;;;;5.10;2.30;;;;;;;10.24;33.64;100533.23;105705;1254;60400;-62
2023/12/15 03:12:03;;;;;;;8.10;3.10;;;;;;;10.20;33.72;100533.36;105545;1252;60472;-61
2023/12/15 03:14:30;;;;;;;7.50;2.10;;;;;;;10.18;33.62;100538.60;105517;1256;65071;-62
2023/12/15 03:16:57;;;;;;;6.70;3.30;;;;;;;10.25;33.65;100542.30;105933;1254;62189;-63
2023/12/15 03:19:24;;;;;;;8.60;2.20;;;;;;;10.29;33.71;100545.27;105533;1254;64436;-64
2023/12/15 03:21:51;;;;;;;6.50;2.70;;;;;;;10.19;33.64;100542.87;105555;1254;60427;-62
2023/12/15 03:24:18;;;;;;;8.90;3.40;;;;;;;10.12;33.65;100542.23;106232;1253;60441;-63
2023/12/15 03:26:44;;;;;;;10.20;3.40;;;;;;;10.12;33.66;100546.39;105598;1256;65177;-62
2023/12/15 03:29:11;;;;;;;11.80;2.00;;;;;;;10.10;33.74;100550.42;105607;1256;62286;-61
2023/12/15 03:31:41;;;;;;;8.70;2.50;;;;;;;10.10;33.76;100547.23;105570;1256;64093;-62
2023/12/15 03:34:08;;;;;;;8.20;2.70;;;;;;;10.12;33.93;100548.15;105505;1256;60527;-63
2023/12/15 03:36:38;;;;;;;9.40;2.10;;;;;;;10.20;33.84;100546.50;105725;1253;60501;-63
2023/12/15 03:39:06;;;;;;;7.30;2.30;;;;;;;10.23;33.93;100544.48;105699;1256;65226;-63
2023/12/15 03:41:33;;;;;;;6.10;2.20;;;;;;;10.22;33.97;100538.24;105829;1254;62075;-62
2023/12/15 03:44:00;;;;;;;23.70;3.70;;;;;;;10.24;34.03;100535.67;105872;1254;64115;-63
2023/12/15 03:46:26;;;;;;;9.40;3.00;;;;;;;10.25;34.04;100537.21;105565;1254;60412;-63
2023/12/15 03:48:53;;;;;;;9.30;2.90;;;;;;;10.20;34.26;100537.39;106143;1256;60482;-63
2023/12/15 03:51:20;;;;;;;6.70;2.30;;;;;;;10.20;34.35;100541.58;103374;1254;3774896;-63
2023/12/15 03:55:49;;;;;;;7.20;3.30;;;;;;;8.32;37.80;100546.13;102347;1295;600052;-64
2023/12/15 03:58:17;;;;;;;6.60;2.20;;;;;;;9.76;35.22;100544.13;105211;1269;59187;-62
2023/12/15 04:00:45;;;;;;;7.30;2.70;;;;;;;9.93;34.98;100547.33;104491;1267;59846;-63
2023/12/15 04:03:13;;;;;;;6.50;2.80;;;;;;;10.00;34.94;100547.66;104469;1267;62074;-62
2023/12/15 04:05:40;;;;;;;9.60;3.80;;;;;;;10.02;34.89;100553.46;104459;1270;60292;-62
2023/12/15 04:08:08;;;;;;;10.30;3.10;;;;;;;10.02;34.90;100557.66;104466;1270;62561;-62
2023/12/15 04:10:36;;;;;;;7.00;2.30;;;;;;;10.09;34.90;100559.58;102890;1263;3644629;-63
2023/12/15 04:13:03;;;;;;;11.20;3.00;;;;;;;10.14;34.96;100560.83;105002;1264;59377;-62
2023/12/15 04:15:31;;;;;;;12.50;4.40;;;;;;;10.16;34.90;100563.25;104819;1264;63295;-63
2023/12/15 04:18:03;;;;;;;9.20;3.30;;;;;;;10.06;34.95;100567.35;105026;1264;61404;-63
2023/12/15 04:20:31;;;;;;;13.10;3.00;;;;;;;10.01;34.96;100569.68;105224;1267;62507;-62
2023/12/15 04:22:59;;;;;;;4.80;2.00;;;;;;;10.03;34.99;100573.51;104997;1267;59791;-62
2023/12/15 04:25:27;;;;;;;9.90;3.10;;;;;;;10.13;34.94;100578.78;105116;1269;59609;-63
2023/12/15 04:27:54;;;;;;;6.00;2.20;;;;;;;10.20;35.00;100585.92;104707;1269;64219;-63
2023/12/15 04:30:22;;;;;;;9.40;2.40;;;;;;;10.29;34.92;100587.38;105270;1268;71027;-64
2023/12/15 04:32:50;;;;;;;9.60;3.40;;;;;;;10.36;34.88;100591.25;104697;1267;62455;-63
2023/12/15 04:35:19;;;;;;;11.90;3.20;;;;;;;10.42;34.78;100597.47;105363;1267;59772;-64
2023/12/15 04:37:46;;;;;;;6.70;2.90;;;;;;;10.40;34.70;100599.54;105433;1266;59638;-65
2023/12/15 04:40:15;;;;;;;9.40;3.00;;;;;;;10.49;34.69;100598.69;104654;1264;64223;-64
2023/12/15 04:42:42;;;;;;;10.70;2.70;;;;;;;10.59;34.66;100601.27;104733;1264;60126;-65
2023/12/15 04:45:10;;;;;;;8.70;2.70;;;;;;;10.69;34.56;100606.45;104680;1264;63770;-63
2023/12/15 04:47:38;;;;;;;13.80;3.30;;;;;;;10.75;34.59;100609.33;105242;1261;59749;-64
2023/12/15 04:50:07;;;;;;;12.60;5.40;;;;;;;10.78;34.51;100614.06;105289;1258;59981;-65
2023/12/15 04:52:35;;;;;;;8.30;2.40;;;;;;;10.76;34.43;100617.37;105484;1257;63030;-66
2023/12/15 04:55:03;;;;;;;9.20;3.40;;;;;;;10.74;34.44;100622.42;105279;1258;61361;-65
2023/12/15 04:57:31;;;;;;;11.90;2.70;;;;;;;10.71;34.49;100629.66;105530;1260;63732;-64
2023/12/15 04:59:58;;;;;;;7.40;3.60;;;;;;;10.69;34.67;100634.91;105237;1257;59736;-65
2023/12/15 05:02:26;;;;;;;7.90;3.20;;;;;;;10.71;34.70;100638.98;105587;1257;59737;-64
2023/12/15 05:04:54;;;;;;;7.40;2.70;;;;;;;10.71;34.65;100647.25;105243;1256;62912;-63
2023/12/15 05:07:22;;;;;;;11.50;3.90;;;;;;;10.76;34.54;100657.85;105759;1257;60241;-65
2023/12/15 05:09:50;;;;;;;7.00;2.00;;;;;;;10.83;34.42;100663.66;105804;1258;64363;-63
2023/12/15 05:12:17;;;;;;;5.40;1.80;;;;;;;10.90;34.48;100668.06;105808;1260;59740;-64
2023/12/15 05:14:45;;;;;;;9.90;3.50;;;;;;;11.02;34.56;100671.48;105184;1260;59502;-65
2023/12/15 05:17:13;;;;;;;7.60;2.30;;;;;;;11.16;34.47;100679.07;105184;1257;64240;-61
2023/12/15 05:19:41;;;;;;;9.30;3.40;;;;;;;11.23;34.44;100686.59;105246;1261;60342;-57
2023/12/15 05:22:08;;;;;;;10.00;3.80;;;;;;;11.25;34.33;100688.70;105321;1260;71354;-65
2023/12/15 05:24:36;;;;;;;9.90;3.60;;;;;;;11.24;34.24;100695.64;105154;1258;60915;-65
2023/12/15 05:27:04;;;;;;;27.30;4.90;;;;;;;11.19;34.23;100703.57;105179;1260;59565;-62
2023/12/15 05:29:31;;;;;;;9.20;3.80;;;;;;;11.12;34.36;100708.16;105359;1257;64130;-60
2023/12/15 05:32:00;;;;;;;9.90;3.50;;;;;;;11.04;34.34;100711.55;105111;1260;60268;-61
2023/12/15 05:34:27;;;;;;;7.70;3.20;;;;;;;11.01;34.44;100717.92;105591;1257;63748;-58
2023/12/15 05:36:55;;;;;;;9.40;3.50;;;;;;;11.02;34.39;100724.85;105092;1262;59775;-56
2023/12/15 05:39:23;;;;;;;13.60;3.10;;;;;;;11.02;34.46;100730.28;105206;1257;59621;-64
2023/12/15 05:41:50;;;;;;;8.80;3.50;;;;;;;11.02;34.45;100739.13;105185;1258;64118;-63
2023/12/15 05:44:18;;;;;;;17.60;3.40;;;;;;;11.04;34.55;100745.61;105146;1258;61732;-61
2023/12/15 05:46:46;;;;;;;12.90;3.60;;;;;;;11.01;34.43;100750.06;105014;1256;62493;-61
2023/12/15 05:49:14;;;;;;;10.60;3.50;;;;;;;10.97;34.32;100757.16;105161;1261;59785;-64
2023/12/15 05:51:48;;;;;;;9.60;3.30;;;;;;;10.92;34.31;100763.16;104953;1260;59506;-57
2023/12/15 05:54:16;;;;;;;11.50;4.00;;;;;;;10.96;34.38;100766.38;105131;1257;64075;-63
2023/12/15 05:56:43;;;;;;;9.30;3.20;;;;;;;11.06;34.27;100768.45;105189;1257;61419;-67
2023/12/15 05:59:11;;;;;;;11.80;3.80;;;;;;;11.18;34.23;100776.14;105250;1260;63803;-67
2023/12/15 06:01:38;;;;;;;9.60;3.70;;;;;;;11.25;34.13;100780.86;105186;1260;59692;-66
2023/12/15 06:04:06;;;;;;;6.90;3.10;;;;;;;11.31;34.15;100780.40;105053;1257;60795;-63
2023/12/15 06:06:34;;;;;;;8.30;4.00;;;;;;;11.32;34.01;100783.30;105349;1260;64090;-63
2023/12/15 06:09:02;;;;;;;10.70;3.70;;;;;;;11.30;33.95;100786.10;105082;1260;60096;-63
2023/12/15 06:11:29;;;;;;;10.70;3.40;;;;;;;11.28;33.74;100791.54;109061;1257;63768;-61
2023/12/15 06:13:57;;;;;;;18.00;3.60;;;;;;;11.24;33.64;100793.56;109003;1256;57574;-65
2023/12/15 06:16:25;;;;;;;7.60;3.20;;;;;;;11.23;33.76;100799.66;107463;1256;59141;-63
2023/12/15 06:18:52;;;;;;;12.20;3.60;;;;;;;11.19;33.85;100799.98;105028;1260;62983;-62
2023/12/15 06:21:24;;;;;;;8.90;2.40;;;;;;;11.14;33.87;100799.27;105099;1260;63006;-65
2023/12/15 06:23:52;;;;;;;7.80;2.80;;;;;;;11.13;33.94;100801.41;105670;1257;62478;-64
2023/12/15 06:26:23;;;;;;;20.30;5.20;;;;;;;11.13;33.97;100801.77;108989;1256;57682;-63
2023/12/15 06:28:53;;;;;;;9.60;3.00;;;;;;;11.19;33.91;100801.86;108047;1257;59478;-60
2023/12/15 06:31:21;;;;;;;14.20;4.70;;;;;;;11.29;33.89;100804.63;105726;1260;62891;-60
2023/12/15 06:33:48;;;;;;;11.50;5.00;;;;;;;11.42;33.86;100812.61;105161;1257;61364;-60
2023/12/15 06:36:17;;;;;;;12.60;5.00;;;;;;;11.57;33.76;100818.50;105206;1257;62495;-60
2023/12/15 06:38:48;;;;;;;16.70;4.60;;;;;;;11.68;33.76;100823.60;105926;1260;59759;-60
2023/12/15 06:41:15;;;;;;;9.60;3.50;;;;;;;11.68;33.49;100831.02;105226;1257;59672;-61
2023/12/15 06:43:44;;;;;;;9.60;4.50;;;;;;;11.64;33.64;100830.27;105072;1262;64080;-67
2023/12/15 06:46:12;;;;;;;15.50;4.00;;;;;;;11.65;33.76;100834.16;105903;1257;61921;-67
2023/12/15 06:48:40;;;;;;;10.50;5.70;;;;;;;11.64;33.68;100835.34;105281;1260;62472;-67
2023/12/15 06:51:08;;;;;;;8.10;4.00;;;;;;;11.54;33.66;100831.57;105255;1260;60289;-67
2023/12/15 06:53:36;;;;;;;8.30;3.30;;;;;;;11.49;33.87;100834.77;105215;1257;59669;-67
2023/12/15 06:56:04;;;;;;;9.20;3.10;;;;;;;11.47;33.99;100837.48;105043;1257;64583;-67
2023/12/15 06:58:32;;;;;;;8.50;3.20;;;;;;;11.43;34.06;100840.83;105443;1260;60150;-61
2023/12/15 07:00:59;;;;;;;11.10;3.70;;;;;;;11.42;34.24;100844.73;105197;1260;64102;-68
2023/12/15 07:03:28;;;;;;;16.90;5.80;;;;;;;11.45;34.31;100850.48;105184;1256;59658;-67
2023/12/15 07:05:56;;;;;;;9.00;3.60;;;;;;;11.53;34.31;100853.08;105570;1260;59919;-66
2023/12/15 07:08:24;;;;;;;8.90;3.70;;;;;;;11.67;34.18;100853.39;105217;1258;62846;-68
2023/12/15 07:10:52;;;;;;;10.00;3.60;;;;;;;11.84;34.01;100858.58;105769;1257;61456;-68
2023/12/15 07:13:19;;;;;;;6.90;2.00;;;;;;;11.95;33.95;100861.27;105177;1257;62499;-67
2023/12/15 07:15:47;;;;;;;9.20;3.70;;;;;;;12.07;33.79;100864.75;105174;1257;59766;-69
2023/12/15 07:18:15;;;;;;;9.50;4.50;;;;;;;12.16;33.80;100868.98;105160;1260;59552;-67
2023/12/15 07:20:43;;;;;;;9.20;2.90;;;;;;;12.23;33.77;100869.05;105163;1256;62909;-68
2023/12/15 07:23:11;;;;;;;10.60;3.30;;;;;;;12.23;33.60;100874.02;105209;1256;60340;-69
2023/12/15 07:25:39;;;;;;;10.40;4.10;;;;;;;12.18;33.51;100874.82;105206;1258;63792;-67
2023/12/15 07:28:06;;;;;;;12.00;4.50;;;;;;;12.13;33.64;100879.02;105198;1256;59657;-68
2023/12/15 07:30:34;;;;;;;6.30;2.90;;;;;;;12.12;33.74;100878.27;105425;1262;59666;-69
2023/12/15 07:33:02;;;;;;;6.50;2.80;;;;;;;12.06;33.65;100876.60;105153;1258;64220;-67
2023/12/15 07:35:30;;;;;;;20.30;4.10;;;;;;;11.96;33.83;100879.52;105553;1257;60317;-67
2023/12/15 07:38:00;;;;;;;11.70;5.20;;;;;;;11.93;33.99;100885.89;105708;1256;63776;-67
2023/12/15 07:40:28;;;;;;;9.70;4.20;;;;;;;11.98;34.07;100889.02;106183;1260;59854;-69
2023/12/15 07:42:56;;;;;;;15.10;5.30;;;;;;;12.00;34.08;100891.98;105721;1257;59628;-68
2023/12/15 07:45:24;;;;;;;10.50;4.20;;;;;;;11.98;34.22;100893.02;105063;1257;63249;-65
2023/12/15 07:47:53;;;;;;;8.40;2.20;;;;;;;12.04;34.34;100894.49;104994;1260;60084;-68
2023/12/15 07:50:21;;;;;;;6.60;2.70;;;;;;;12.15;34.16;100897.02;105584;1260;65367;-68
2023/12/15 07:52:49;;;;;;;16.30;3.60;;;;;;;12.26;34.04;100898.79;104878;1257;59781;-69
2023/12/15 07:55:18;;;;;;;8.00;3.30;;;;;;;12.33;33.92;100903.54;105804;1258;59747;-68
2023/12/15 07:57:45;;;;;;;9.60;2.70;;;;;;;12.40;33.90;100910.50;105580;1257;63075;-58
2023/12/15 08:00:14;;;;;;;7.80;3.70;;;;;;;12.46;33.88;100918.96;105235;1257;61369;-66
2023/12/15 08:02:43;;;;;;;7.40;3.60;;;;;;;12.38;33.85;100928.40;105561;1256;63777;-67
2023/12/15 08:05:11;;;;;;;10.20;4.90;;;;;;;12.27;34.06;100934.55;105869;1257;60611;-67
2023/12/15 08:07:40;;;;;;;11.10;4.40;;;;;;;12.19;34.26;100939.56;105869;1256;59645;-67
2023/12/15 08:10:09;;;;;;;8.40;3.10;;;;;;;12.17;34.41;100947.46;105271;1261;63678;-68
2023/12/15 08:12:36;;;;;;;14.20;4.90;;;;;;;12.15;34.46;100949.42;105976;1257;61329;-67
2023/12/15 08:15:05;;;;;;;10.90;4.60;;;;;;;12.12;34.53;100958.66;105151;1256;63669;-66
2023/12/15 08:17:33;;;;;;;10.50;3.90;;;;;;;12.09;34.66;100958.30;105452;1256;60532;-66
2023/12/15 08:20:02;;;;;;;9.70;3.40;;;;;;;12.06;34.70;100959.77;105511;1256;60460;-67
2023/12/15 08:22:31;;;;;;;13.20;4.30;;;;;;;12.05;34.81;100963.16;105554;1260;64871;-67
2023/12/15 08:24:58;;;;;;;12.00;4.90;;;;;;;12.09;34.88;100962.56;105831;1257;60510;-66
2023/12/15 08:27:26;;;;;;;9.80;4.30;;;;;;;12.09;34.89;100968.86;105886;1257;65630;-65
2023/12/15 08:29:57;;;;;;;9.80;4.50;;;;;;;12.05;34.92;100971.95;105889;1260;60379;-67
2023/12/15 08:32:24;;;;;;;12.40;4.50;;;;;;;12.09;35.02;100981.69;105195;1257;60469;-66
2023/12/15 08:34:52;;;;;;;17.50;4.60;;;;;;;12.15;34.87;100988.82;105712;1257;63894;-67
2023/12/15 08:37:20;;;;;;;8.80;4.60;;;;;;;12.19;34.99;100990.42;105955;1256;61424;-68
2023/12/15 08:39:48;;;;;;;16.20;4.60;;;;;;;12.25;34.93;100995.08;105872;1257;62584;-66
2023/12/15 08:42:15;;;;;;;17.00;5.80;;;;;;;12.38;35.08;100995.67;105890;1256;60458;-67
2023/12/15 08:44:43;;;;;;;8.20;3.60;;;;;;;12.51;34.94;100997.61;105910;1260;60780;-66
2023/12/15 08:47:12;;;;;;;11.90;5.40;;;;;;;12.51;34.82;101002.42;105907;1256;64921;-65
2023/12/15 08:49:39;;;;;;;11.10;5.10;;;;;;;12.48;34.92;101004.02;105812;1259;61465;-67
2023/12/15 08:52:07;;;;;;;13.90;5.10;;;;;;;12.49;34.93;101008.88;105865;1260;62530;-66
2023/12/15 08:54:35;;;;;;;10.30;4.00;;;;;;;12.47;34.97;101010.21;105876;1255;60495;-65
2023/12/15 08:57:03;;;;;;;15.10;5.30;;;;;;;12.47;35.03;101012.36;105219;1256;60465;-65
2023/12/15 08:59:30;;;;;;;14.10;4.70;;;;;;;12.46;34.98;101012.59;105564;1260;74163;-65
2023/12/15 09:01:58;;;;;;;12.10;5.10;;;;;;;12.46;35.06;101013.67;105475;1257;60426;-65
2023/12/15 09:04:26;;;;;;;10.40;5.50;;;;;;;12.48;35.13;101014.92;105583;1256;63836;-66
2023/12/15 09:06:54;;;;;;;15.20;5.60;;;;;;;12.51;35.07;101011.73;105570;1258;60399;-65
2023/12/15 09:09:23;;;;;;;19.50;6.90;;;;;;;12.53;35.19;101017.16;105183;1260;60679;-65
2023/12/15 09:11:54;;;;;;;16.10;6.00;;;;;;;12.61;35.14;101017.63;105610;1256;63921;-64
2023/12/15 09:14:23;;;;;;;13.70;5.30;;;;;;;12.72;35.19;101020.95;105178;1260;61239;-65
2023/12/15 09:16:51;;;;;;;9.80;3.40;;;;;;;12.81;35.11;101026.94;105593;1258;64132;-66
2023/12/15 09:19:19;;;;;;;10.50;3.60;;;;;;;12.90;35.00;101028.88;105760;1256;60639;-67
2023/12/15 09:21:47;;;;;;;8.60;3.90;;;;;;;13.01;34.89;101027.68;105104;1260;60458;-65
2023/12/15 09:24:15;;;;;;;13.90;4.40;;;;;;;13.09;34.82;101033.17;105395;1256;63704;-65
2023/12/15 09:26:43;;;;;;;14.30;6.30;;;;;;;13.16;34.79;101040.91;104980;1256;64003;-66
2023/12/15 09:29:11;;;;;;;10.50;4.50;;;;;;;13.31;34.87;101040.63;105159;1257;63906;-64
2023/12/15 09:31:39;;;;;;;15.10;6.50;;;;;;;13.45;34.63;101041.80;105149;1257;60462;-65
2023/12/15 09:34:07;;;;;;;11.00;4.10;;;;;;;13.54;34.50;101045.27;104872;1256;61039;-65
2023/12/15 09:36:35;;;;;;;14.10;5.40;;;;;;;13.57;34.45;101045.02;105225;1256;63711;-65
2023/12/15 09:39:03;;;;;;;15.80;5.20;;;;;;;13.58;34.42;101042.66;106277;1257;61386;-66
2023/12/15 09:41:31;;;;;;;10.60;3.90;;;;;;;13.62;34.07;101047.66;105674;1256;63708;-65
2023/12/15 09:43:59;;;;;;;10.50;3.90;;;;;;;13.57;33.54;101052.25;105935;1260;60651;-65
2023/12/15 09:46:27;;;;;;;7.00;4.10;;;;;;;13.51;33.50;101057.45;105814;1257;60530;-65
2023/12/15 09:48:54;;;;;;;7.50;2.40;;;;;;;13.47;33.50;101062.20;105911;1255;63746;-66
2023/12/15 09:51:24;;;;;;;7.90;3.60;;;;;;;13.46;33.59;101067.45;105817;1256;60459;-70
2023/12/15 09:53:53;;;;;;;10.80;3.40;;;;;;;13.41;33.65;101065.01;106224;1257;64288;-64
2023/12/15 09:56:21;;;;;;;11.40;5.00;;;;;;;13.32;33.79;101069.58;105245;1257;60476;-65
2023/12/15 09:58:49;;;;;;;10.90;4.70;;;;;;;13.30;33.98;101071.69;105116;1262;60322;-67
2023/12/15 10:01:16;;;;;;;10.70;5.20;;;;;;;13.39;34.01;101070.61;105123;1258;63736;-66
2023/12/15 10:03:44;;;;;;;9.60;2.60;;;;;;;13.51;33.91;101077.73;105394;1256;72614;-65
2023/12/15 10:06:13;;;;;;;12.80;2.30;;;;;;;13.62;33.88;101073.90;105230;1260;63397;-66
2023/12/15 10:08:42;;;;;;;7.70;3.10;;;;;;;13.69;33.78;101075.44;105254;1256;60442;-66
2023/12/15 10:11:32;;;;;;;10.90;4.30;;;;;;;13.74;33.75;101074.67;105205;1257;60584;-66
2023/12/15 10:14:04;;;;;;;7.40;3.00;;;;;;;13.81;33.82;101076.07;105637;1256;63724;-69
2023/12/15 10:16:37;;;;;;;9.50;4.60;;;;;;;13.86;33.78;101076.35;105865;1257;61359;-69
2023/12/15 10:19:05;;;;;;;8.20;3.50;;;;;;;13.83;33.80;101083.10;106017;1260;74908;-67
2023/12/15 10:21:33;;;;;;;8.90;4.30;;;;;;;13.86;33.82;101085.13;106089;1257;60518;-66
2023/12/15 10:24:19;;;;;;;11.30;5.30;;;;;;;13.88;33.74;101088.46;106113;1256;60451;-65
2023/12/15 10:26:47;;;;;;;12.40;5.30;;;;;;;13.87;33.88;101091.54;105973;1257;64861;-66
2023/12/15 10:29:17;;;;;;;13.80;5.70;;;;;;;13.87;33.85;101093.84;105925;1260;60347;-64
2023/12/15 10:31:49;;;;;;;10.70;4.20;;;;;;;13.77;34.01;101094.35;105892;1256;74816;-64
2023/12/15 10:34:18;;;;;;;12.40;6.30;;;;;;;13.69;34.11;101095.20;105940;1256;60423;-63
2023/12/15 10:36:46;;;;;;;10.10;4.20;;;;;;;13.64;34.13;101097.48;105164;1260;60399;-65
2023/12/15 10:39:14;;;;;;;12.70;4.30;;;;;;;13.57;34.35;101098.27;105229;1257;64889;-65
2023/12/15 10:41:41;;;;;;;12.10;6.20;;;;;;;13.47;34.59;101102.38;105906;1256;60823;-64
2023/12/15 10:44:11;;;;;;;9.00;3.80;;;;;;;13.44;34.70;101103.88;105610;1257;65888;-65
2023/12/15 10:46:43;;;;;;;11.10;3.40;;;;;;;13.48;34.61;101106.02;105839;1258;60655;-69
2023/12/15 10:49:11;;;;;;;15.60;4.40;;;;;;;13.58;34.67;101107.19;105617;1259;60371;-67
2023/12/15 10:51:40;;;;;;;13.70;5.00;;;;;;;13.66;34.52;101110.21;105289;1260;76018;-66
2023/12/15 10:54:08;;;;;;;9.70;4.10;;;;;;;13.71;34.70;101113.84;105178;1260;71232;-65
2023/12/15 10:56:39;;;;;;;12.40;5.30;;;;;;;13.76;34.57;101108.89;105196;1257;62494;-65
2023/12/15 10:59:07;;;;;;;13.80;5.30;;;;;;;13.79;34.63;101103.56;105257;1257;60455;-64
2023/12/15 11:01:36;;;;;;;15.40;6.70;;;;;;;13.79;34.66;101102.09;105141;1256;60546;-65
2023/12/15 11:04:16;;;;;;;11.90;5.10;;;;;;;13.80;34.74;101100.95;105227;1263;64896;-66
2023/12/15 11:06:44;;;;;;;12.50;5.10;;;;;;;13.80;34.62;101103.46;105361;1256;61434;-69
2023/12/15 11:09:11;;;;;;;10.50;4.20;;;;;;;13.75;34.59;101105.45;105382;1260;62539;-66
2023/12/15 11:11:39;;;;;;;9.10;4.60;;;;;;;13.70;34.68;101109.73;105201;1257;60563;-67
2023/12/15 11:14:07;;;;;;;10.50;4.80;;;;;;;13.65;34.66;101110.15;105130;1260;60788;-64
2023/12/15 11:16:36;;;;;;;13.90;5.80;;;;;;;13.64;34.66;101111.09;105488;1256;76267;-68
2023/12/15 11:19:04;;;;;;;14.40;6.30;;;;;;;13.61;34.65;101113.30;105402;1256;63711;-67